createdAt,value
2023-04-04T00:00:54.356Z,8.50
2023-04-04T00:03:22.609Z,8.49
2023-04-04T00:05:51.807Z,8.48
2023-04-04T00:08:19.949Z,8.48
2023-04-04T00:10:48.175Z,8.50
2023-04-04T00:13:17.850Z,8.52
2023-04-04T00:15:46.159Z,8.51
2023-04-04T00:18:14.368Z,8.51
2023-04-04T00:20:42.717Z,8.51
2023-04-04T00:23:11.228Z,8.53
2023-04-04T00:25:39.639Z,8.55
2023-04-04T00:28:07.853Z,8.56
2023-04-04T00:30:38.194Z,8.56
2023-04-04T00:33:06.652Z,8.58
2023-04-04T00:35:34.990Z,8.59
2023-04-04T00:38:03.118Z,8.57
2023-04-04T00:40:31.570Z,8.57
2023-04-04T00:43:00.821Z,8.58
2023-04-04T00:45:29.124Z,8.64
2023-04-04T00:47:59.680Z,8.66
2023-04-04T00:50:27.918Z,8.66
2023-04-04T00:52:56.417Z,8.61
2023-04-04T00:55:24.816Z,8.58
2023-04-04T00:57:53.184Z,8.53
2023-04-04T01:00:22.126Z,8.53
2023-04-04T01:02:50.226Z,8.49
2023-04-04T01:05:19.867Z,8.57
2023-04-04T01:07:48.139Z,8.57
2023-04-04T01:10:16.338Z,8.60
2023-04-04T01:12:44.718Z,8.62
2023-04-04T01:15:13.044Z,8.66
2023-04-04T01:17:42.071Z,8.65
2023-04-04T01:20:14.183Z,8.66
2023-04-04T01:22:48.298Z,8.67
2023-04-04T01:25:17.796Z,8.65
2023-04-04T01:27:47.316Z,8.67
2023-04-04T01:30:17.820Z,8.66
2023-04-04T01:32:51.136Z,8.67
2023-04-04T01:35:27.453Z,8.68
2023-04-04T01:38:09.502Z,8.69
2023-04-04T01:40:40.003Z,8.69
2023-04-04T01:43:10.003Z,8.70
2023-04-04T01:45:38.205Z,8.69
2023-04-04T01:48:06.713Z,8.70
2023-04-04T01:50:34.911Z,8.70
2023-04-04T01:53:03.009Z,8.72
2023-04-04T01:55:31.164Z,8.71
2023-04-04T01:57:59.330Z,8.74
2023-04-04T02:00:28.905Z,8.76
2023-04-04T02:02:57.439Z,8.78
2023-04-04T02:05:25.879Z,8.79
2023-04-04T02:07:54.155Z,8.78
2023-04-04T02:10:22.275Z,8.77
2023-04-04T02:12:50.398Z,8.77
2023-04-04T02:15:19.462Z,8.78
2023-04-04T02:17:50.739Z,8.78
2023-04-04T02:20:19.653Z,8.79
2023-04-04T02:22:54.829Z,8.77
2023-04-04T02:25:24.562Z,8.79
2023-04-04T02:27:52.748Z,8.79
2023-04-04T02:30:20.945Z,8.77
2023-04-04T02:32:50.542Z,8.73
2023-04-04T02:35:18.742Z,8.75
2023-04-04T02:37:48.324Z,8.70
2023-04-04T02:40:16.693Z,8.68
2023-04-04T02:42:45.665Z,8.70
2023-04-04T02:45:14.860Z,8.73
2023-04-04T02:47:43.871Z,8.68
2023-04-04T02:50:13.624Z,8.73
2023-04-04T02:52:41.852Z,8.72
2023-04-04T02:55:11.891Z,8.73
2023-04-04T02:57:40.462Z,8.69
2023-04-04T03:00:10.041Z,8.67
2023-04-04T03:02:38.363Z,8.70
2023-04-04T03:05:07.229Z,8.67
2023-04-04T03:07:36.922Z,8.64
2023-04-04T03:10:05.518Z,8.65
2023-04-04T03:12:33.627Z,8.62
2023-04-04T03:15:01.936Z,8.63
2023-04-04T03:17:30.268Z,8.64
2023-04-04T03:19:58.437Z,8.67
2023-04-04T03:22:26.511Z,8.68
2023-04-04T03:24:56.027Z,8.70
2023-04-04T03:27:24.301Z,8.72
2023-04-04T03:29:52.435Z,8.69
2023-04-04T03:32:20.484Z,8.67
2023-04-04T03:34:48.635Z,8.68
2023-04-04T03:37:16.808Z,8.71
2023-04-04T03:39:45.171Z,8.74
2023-04-04T03:42:14.736Z,8.69
2023-04-04T03:44:43.102Z,8.70
2023-04-04T03:47:11.356Z,8.71
2023-04-04T03:49:39.538Z,8.73
2023-04-04T03:52:07.898Z,8.71
2023-04-04T03:54:36.233Z,8.79
2023-04-04T03:57:05.186Z,8.82
2023-04-04T03:59:34.890Z,8.82
2023-04-04T04:02:02.962Z,8.82
2023-04-04T04:04:31.196Z,8.83
2023-04-04T04:06:59.551Z,8.85
2023-04-04T04:09:27.718Z,8.85
2023-04-04T04:11:55.850Z,8.88
2023-04-04T04:14:23.996Z,8.87
2023-04-04T04:16:53.667Z,8.87
2023-04-04T04:19:21.869Z,8.87
2023-04-04T04:21:49.955Z,8.89
2023-04-04T04:24:18.280Z,8.87
2023-04-04T04:26:46.607Z,8.87
2023-04-04T04:29:14.778Z,8.89
2023-04-04T04:31:42.949Z,8.90
2023-04-04T04:34:12.710Z,8.92
2023-04-04T04:36:41.190Z,8.93
2023-04-04T04:39:09.432Z,8.94
2023-04-04T04:41:38.599Z,8.98
2023-04-04T04:44:07.565Z,8.98
2023-04-04T04:46:35.766Z,8.93
2023-04-04T04:49:04.057Z,8.98
2023-04-04T04:51:33.704Z,9.00
2023-04-04T04:54:01.880Z,8.99
2023-04-04T04:56:30.021Z,8.98
2023-04-04T04:58:58.941Z,8.97
2023-04-04T05:01:27.450Z,8.99
2023-04-04T05:03:55.617Z,9.00
2023-04-04T05:06:23.746Z,9.00
2023-04-04T05:08:53.345Z,9.00
2023-04-04T05:11:21.775Z,8.96
2023-04-04T05:13:50.107Z,8.96
2023-04-04T05:16:20.526Z,8.92
2023-04-04T05:18:49.052Z,8.91
2023-04-04T05:21:17.573Z,8.87
2023-04-04T05:23:45.657Z,8.87
2023-04-04T05:26:15.447Z,8.89
2023-04-04T05:28:43.571Z,8.89
2023-04-04T05:31:11.774Z,8.93
2023-04-04T05:33:39.993Z,8.91
2023-04-04T05:36:08.954Z,8.92
2023-04-04T05:38:37.313Z,8.86
2023-04-04T05:41:05.758Z,8.80
2023-04-04T05:43:35.319Z,8.79
2023-04-04T05:46:03.588Z,8.83
2023-04-04T05:48:31.912Z,8.81
2023-04-04T05:51:00.113Z,8.80
2023-04-04T05:53:28.206Z,8.81
2023-04-04T05:55:56.338Z,8.81
2023-04-04T05:58:24.632Z,8.85
2023-04-04T06:00:54.117Z,8.86
2023-04-04T06:03:22.466Z,8.80
2023-04-04T06:05:53.477Z,8.78
2023-04-04T06:08:21.708Z,8.80
2023-04-04T06:10:49.768Z,8.84
2023-04-04T06:13:17.949Z,8.84
2023-04-04T06:15:46.068Z,8.79
2023-04-04T06:18:16.842Z,8.80
2023-04-04T06:20:44.999Z,8.83
2023-04-04T06:23:13.246Z,8.85
2023-04-04T06:25:41.590Z,8.86
2023-04-04T06:28:11.140Z,8.87
2023-04-04T06:30:39.726Z,8.88
2023-04-04T06:33:08.398Z,8.88
2023-04-04T06:35:37.877Z,8.91
2023-04-04T06:38:06.034Z,8.93
2023-04-04T06:40:34.240Z,8.96
2023-04-04T06:43:02.638Z,9.03
2023-04-04T06:45:33.630Z,9.03
2023-04-04T06:48:02.444Z,9.07
2023-04-04T06:50:32.419Z,9.01
2023-04-04T06:53:02.433Z,9.07
2023-04-04T06:55:30.627Z,9.07
2023-04-04T06:57:58.807Z,9.06
2023-04-04T07:00:27.000Z,9.07
2023-04-04T07:02:59.292Z,9.13
2023-04-04T07:05:27.549Z,9.13
2023-04-04T07:07:57.089Z,9.16
2023-04-04T07:10:27.373Z,9.18
2023-04-04T07:12:55.741Z,9.16
2023-04-04T07:15:23.822Z,9.16
2023-04-04T07:17:52.314Z,9.16
2023-04-04T07:20:20.584Z,9.16
2023-04-04T07:22:50.379Z,9.19
2023-04-04T07:25:18.645Z,9.20
2023-04-04T07:27:48.386Z,9.24
2023-04-04T07:30:17.075Z,9.27
2023-04-04T07:32:45.273Z,9.31
2023-04-04T07:35:13.956Z,9.36
2023-04-04T07:37:42.060Z,9.41
2023-04-04T07:40:11.264Z,9.41
2023-04-04T07:42:45.097Z,9.50
2023-04-04T07:45:15.301Z,9.55
2023-04-04T07:47:45.162Z,9.60
2023-04-04T07:50:13.616Z,9.64
2023-04-04T07:52:42.342Z,9.69
2023-04-04T07:55:10.921Z,9.75
2023-04-04T07:57:40.083Z,9.73
2023-04-04T08:00:10.983Z,9.78
2023-04-04T08:02:40.865Z,9.85
2023-04-04T08:05:10.470Z,9.86
2023-04-04T08:07:38.627Z,9.93
2023-04-04T08:10:08.121Z,9.95
2023-04-04T08:12:36.344Z,10.05
2023-04-04T08:15:04.588Z,10.11
2023-04-04T08:17:32.763Z,10.15
2023-04-04T08:20:02.603Z,10.19
2023-04-04T08:22:30.800Z,10.17
2023-04-04T08:24:58.984Z,10.16
2023-04-04T08:27:27.482Z,10.17
2023-04-04T08:29:55.639Z,10.19
2023-04-04T08:32:23.863Z,10.14
2023-04-04T08:34:52.193Z,10.16
2023-04-04T08:37:22.378Z,10.17
2023-04-04T08:39:50.724Z,10.22
2023-04-04T08:42:20.862Z,10.23
2023-04-04T08:44:53.926Z,10.26
2023-04-04T08:47:25.334Z,10.29
2023-04-04T08:49:56.756Z,10.36
2023-04-04T08:52:28.745Z,10.40
2023-04-04T08:54:57.893Z,10.49
2023-04-04T08:57:26.413Z,10.55
2023-04-04T08:59:55.275Z,10.60
2023-04-04T09:02:30.701Z,10.66
2023-04-04T09:05:06.433Z,10.70
2023-04-04T09:07:39.235Z,10.70
2023-04-04T09:10:11.912Z,10.71
2023-04-04T09:12:43.753Z,10.75
2023-04-04T09:15:13.744Z,10.77
2023-04-04T09:17:42.085Z,10.78
2023-04-04T09:20:35.416Z,10.71
2023-04-04T09:23:07.125Z,10.79
2023-04-04T09:25:35.412Z,10.81
2023-04-04T09:28:05.670Z,10.84
2023-04-04T09:30:35.778Z,10.89
2023-04-04T09:33:06.186Z,10.94
2023-04-04T09:35:36.651Z,11.02
2023-04-04T09:38:07.531Z,11.13
2023-04-04T09:40:37.214Z,11.21
2023-04-04T09:43:08.992Z,11.25
2023-04-04T09:45:40.664Z,11.31
2023-04-04T09:48:09.266Z,11.32
2023-04-04T09:50:39.704Z,11.32
2023-04-04T09:53:09.427Z,11.33
2023-04-04T09:55:38.877Z,11.38
2023-04-04T09:58:14.146Z,11.40
2023-04-04T10:00:47.903Z,11.42
2023-04-04T10:03:17.829Z,11.44
2023-04-04T10:05:46.960Z,11.45
2023-04-04T10:08:18.738Z,11.41
2023-04-04T10:10:58.842Z,11.40
2023-04-04T10:13:37.054Z,11.41
2023-04-04T10:16:06.043Z,11.42
2023-04-04T10:18:36.193Z,11.43
2023-04-04T10:21:15.247Z,11.37
2023-04-04T10:23:47.753Z,11.39
2023-04-04T10:26:16.432Z,11.40
2023-04-04T10:28:45.604Z,11.45
2023-04-04T10:31:19.378Z,11.50
2023-04-04T10:33:53.760Z,11.55
2023-04-04T10:36:24.891Z,11.60
2023-04-04T10:39:04.936Z,11.60
2023-04-04T10:41:34.279Z,11.71
2023-04-04T10:44:10.778Z,11.75
2023-04-04T10:46:44.925Z,11.82
2023-04-04T10:49:13.667Z,11.89
2023-04-04T10:51:54.851Z,11.98
2023-04-04T10:54:27.680Z,12.13
2023-04-04T10:57:00.768Z,12.27
2023-04-04T10:59:29.328Z,12.37
2023-04-04T11:01:59.286Z,12.44
2023-04-04T11:04:33.415Z,12.47
2023-04-04T11:07:12.859Z,12.47
2023-04-04T11:10:02.189Z,12.42
2023-04-04T11:12:33.706Z,12.32
2023-04-04T11:15:09.896Z,12.24
2023-04-04T11:17:57.623Z,12.26
2023-04-04T11:20:30.760Z,12.24
2023-04-04T11:23:07.258Z,12.22
2023-04-04T11:25:41.593Z,12.22
2023-04-04T11:28:14.889Z,12.20
2023-04-04T11:30:51.388Z,12.16
2023-04-04T11:33:29.151Z,12.12
2023-04-04T11:36:01.966Z,12.13
2023-04-04T11:38:30.711Z,12.12
2023-04-04T11:41:00.978Z,12.05
2023-04-04T11:43:29.894Z,12.02
2023-04-04T11:46:09.164Z,11.95
2023-04-04T11:48:38.471Z,11.96
2023-04-04T11:51:08.289Z,11.98
2023-04-04T11:53:36.489Z,11.97
2023-04-04T11:56:06.378Z,11.99
2023-04-04T11:58:37.206Z,11.98
2023-04-04T12:01:06.629Z,12.02
2023-04-04T12:03:36.538Z,12.03
2023-04-04T12:06:05.101Z,12.10
2023-04-04T12:08:33.740Z,12.11
2023-04-04T12:11:10.712Z,12.13
2023-04-04T12:13:44.854Z,12.17
2023-04-04T12:16:13.168Z,12.30
2023-04-04T12:18:41.778Z,12.35
2023-04-04T12:21:09.988Z,12.36
2023-04-04T12:23:38.224Z,12.37
2023-04-04T12:26:09.623Z,12.54
2023-04-04T12:28:39.566Z,12.96
2023-04-04T12:31:08.314Z,13.33
2023-04-04T12:33:38.136Z,13.63
2023-04-04T12:36:08.016Z,13.90
2023-04-04T12:38:41.377Z,13.96
2023-04-04T12:41:19.551Z,13.86
2023-04-04T12:43:48.162Z,13.80
2023-04-04T12:46:16.513Z,13.75
2023-04-04T12:48:45.738Z,13.71
2023-04-04T12:51:16.050Z,13.73
2023-04-04T12:53:53.061Z,13.83
2023-04-04T12:56:27.549Z,13.87
2023-04-04T12:59:03.333Z,13.93
2023-04-04T13:01:32.353Z,14.03
2023-04-04T13:04:04.276Z,14.13
2023-04-04T13:06:33.612Z,14.30
2023-04-04T13:09:01.788Z,14.50
2023-04-04T13:11:57.198Z,14.74
2023-04-04T13:14:25.443Z,14.97
2023-04-04T13:17:04.531Z,15.17
2023-04-04T13:19:32.740Z,15.21
2023-04-04T13:22:03.824Z,15.25
2023-04-04T13:24:31.965Z,15.23
2023-04-04T13:27:01.422Z,15.23
2023-04-04T13:29:29.495Z,15.31
2023-04-04T13:31:57.772Z,15.33
2023-04-04T13:34:26.899Z,15.34
2023-04-04T13:36:56.418Z,15.36
2023-04-04T13:39:25.227Z,15.30
2023-04-04T13:41:53.249Z,15.33
2023-04-04T13:44:23.695Z,15.39
2023-04-04T13:46:52.574Z,15.49
2023-04-04T13:49:20.722Z,15.58
2023-04-04T13:51:49.139Z,15.65
2023-04-04T13:54:17.277Z,15.66
2023-04-04T13:56:46.880Z,15.67
2023-04-04T13:59:15.200Z,15.63
2023-04-04T14:01:44.904Z,15.62
2023-04-04T14:04:22.640Z,15.50
2023-04-04T14:06:51.928Z,15.40
2023-04-04T14:09:20.447Z,15.19
2023-04-04T14:11:48.620Z,15.15
2023-04-04T14:14:17.079Z,15.19
2023-04-04T14:16:47.286Z,15.12
2023-04-04T14:19:15.499Z,15.17
2023-04-04T14:21:43.741Z,15.07
2023-04-04T14:24:11.853Z,15.13
2023-04-04T14:26:39.994Z,15.08
2023-04-04T14:29:08.443Z,14.99
2023-04-04T14:31:36.705Z,14.92
2023-04-04T14:34:06.855Z,14.83
2023-04-04T14:36:35.052Z,14.75
2023-04-04T14:39:03.277Z,14.70
2023-04-04T14:41:31.560Z,14.70
2023-04-04T14:43:59.632Z,14.64
2023-04-04T14:46:27.794Z,14.64
2023-04-04T14:48:55.989Z,14.55
2023-04-04T14:51:25.590Z,14.52
2023-04-04T14:53:53.802Z,14.51
2023-04-04T14:56:23.368Z,14.48
2023-04-04T14:58:52.100Z,14.46
2023-04-04T15:01:22.065Z,14.43
2023-04-04T15:03:50.396Z,14.42
2023-04-04T15:06:18.652Z,14.39
2023-04-04T15:08:48.250Z,14.37
2023-04-04T15:11:16.788Z,14.35
2023-04-04T15:13:45.274Z,14.38
2023-04-04T15:16:13.382Z,14.31
2023-04-04T15:18:41.522Z,14.31
2023-04-04T15:21:09.661Z,14.17
2023-04-04T15:23:37.974Z,14.12
2023-04-04T15:26:07.564Z,14.09
2023-04-04T15:28:35.753Z,14.06
2023-04-04T15:31:04.178Z,13.98
2023-04-04T15:33:32.832Z,13.92
2023-04-04T15:36:01.058Z,13.92
2023-04-04T15:38:29.358Z,13.95
2023-04-04T15:40:57.976Z,13.94
2023-04-04T15:43:27.977Z,13.97
2023-04-04T15:45:56.274Z,14.07
2023-04-04T15:48:24.644Z,14.10
2023-04-04T15:50:52.895Z,14.13
2023-04-04T15:53:21.566Z,14.15
2023-04-04T15:55:49.692Z,14.16
2023-04-04T15:58:17.945Z,14.19
2023-04-04T16:00:48.190Z,14.21
2023-04-04T16:03:16.616Z,14.23
2023-04-04T16:05:44.905Z,14.24
2023-04-04T16:08:14.635Z,14.23
2023-04-04T16:10:44.299Z,14.24
2023-04-04T16:13:12.539Z,14.25
2023-04-04T16:15:40.824Z,14.21
2023-04-04T16:18:10.672Z,14.18
2023-04-04T16:20:39.097Z,14.12
2023-04-04T16:23:07.427Z,14.12
2023-04-04T16:25:35.924Z,14.05
2023-04-04T16:28:03.966Z,13.96
2023-04-04T16:30:32.207Z,13.91
2023-04-04T16:33:00.515Z,13.85
2023-04-04T16:35:30.097Z,13.79
2023-04-04T16:37:58.256Z,13.74
2023-04-04T16:40:26.375Z,13.66
2023-04-04T16:42:54.540Z,13.59
2023-04-04T16:45:22.867Z,13.53
2023-04-04T16:47:51.759Z,13.46
2023-04-04T16:50:20.026Z,13.38
2023-04-04T16:52:49.557Z,13.37
2023-04-04T16:55:17.789Z,13.32
2023-04-04T16:57:46.577Z,13.28
2023-04-04T17:00:15.930Z,13.20
2023-04-04T17:02:46.350Z,13.17
2023-04-04T17:05:14.885Z,13.19
2023-04-04T17:07:43.401Z,13.18
2023-04-04T17:10:14.102Z,13.10
2023-04-04T17:12:42.212Z,13.10
2023-04-04T17:15:11.334Z,13.14
2023-04-04T17:17:39.627Z,13.08
2023-04-04T17:20:08.610Z,13.05
2023-04-04T17:22:38.599Z,12.99
2023-04-04T17:25:07.768Z,12.89
2023-04-04T17:27:37.484Z,12.87
2023-04-04T17:30:06.650Z,12.88
2023-04-04T17:32:35.150Z,12.86
2023-04-04T17:35:03.412Z,12.84
2023-04-04T17:37:32.402Z,12.75
2023-04-04T17:40:01.305Z,12.77
2023-04-04T17:42:29.436Z,12.74
2023-04-04T17:44:59.086Z,12.67
2023-04-04T17:47:27.350Z,12.59
2023-04-04T17:49:57.332Z,12.54
2023-04-04T17:52:25.476Z,12.48
2023-04-04T17:54:54.366Z,12.49
2023-04-04T17:57:22.614Z,12.49
2023-04-04T17:59:51.386Z,12.45
2023-04-04T18:02:21.195Z,12.40
2023-04-04T18:04:49.369Z,12.40
2023-04-04T18:07:19.153Z,12.39
2023-04-04T18:09:47.660Z,12.37
2023-04-04T18:12:16.038Z,12.26
2023-04-04T18:14:44.188Z,12.21
2023-04-04T18:17:12.859Z,12.15
2023-04-04T18:19:42.751Z,12.10
2023-04-04T18:22:10.929Z,12.06
2023-04-04T18:24:39.158Z,12.07
2023-04-04T18:27:09.179Z,12.07
2023-04-04T18:29:37.441Z,12.05
2023-04-04T18:32:05.785Z,12.03
2023-04-04T18:34:34.005Z,11.99
2023-04-04T18:37:03.500Z,12.01
2023-04-04T18:39:31.931Z,11.96
2023-04-04T18:42:00.183Z,11.94
2023-04-04T18:44:28.340Z,11.92
2023-04-04T18:46:58.400Z,11.87
2023-04-04T18:49:27.267Z,11.88
2023-04-04T18:51:55.578Z,11.88
2023-04-04T18:54:27.234Z,11.87
2023-04-04T18:56:56.854Z,11.83
2023-04-04T18:59:25.535Z,11.82
2023-04-04T19:01:54.210Z,11.80
2023-04-04T19:04:22.674Z,11.76
2023-04-04T19:06:51.515Z,11.74
2023-04-04T19:09:21.399Z,11.77
2023-04-04T19:11:54.638Z,11.74
2023-04-04T19:14:22.895Z,11.72
2023-04-04T19:16:51.449Z,11.74
2023-04-04T19:19:21.624Z,11.76
2023-04-04T19:21:49.833Z,11.76
2023-04-04T19:24:18.052Z,11.71
2023-04-04T19:26:47.191Z,11.70
2023-04-04T19:29:22.405Z,11.70
2023-04-04T19:31:50.713Z,11.69
2023-04-04T19:34:20.627Z,11.67
2023-04-04T19:36:48.878Z,11.66
2023-04-04T19:39:20.784Z,11.62
2023-04-04T19:41:48.938Z,11.61
2023-04-04T19:44:21.235Z,11.54
2023-04-04T19:46:49.913Z,11.50
2023-04-04T19:49:19.387Z,11.48
2023-04-04T19:51:51.908Z,11.47
2023-04-04T19:54:25.956Z,11.43
2023-04-04T19:57:00.161Z,11.40
2023-04-04T19:59:59.140Z,11.40
2023-04-04T20:02:57.016Z,11.43
2023-04-04T20:05:57.729Z,11.42
2023-04-04T20:08:36.063Z,11.42
2023-04-04T20:11:05.761Z,11.41
2023-04-04T20:13:36.161Z,11.40
2023-04-04T20:16:08.080Z,11.44
2023-04-04T20:18:37.971Z,11.47
2023-04-04T20:21:08.815Z,11.49
2023-04-04T20:23:45.626Z,11.49
2023-04-04T20:26:16.313Z,11.43
2023-04-04T20:28:47.933Z,11.42
2023-04-04T20:31:19.762Z,11.40
2023-04-04T20:33:48.559Z,11.39
2023-04-04T20:36:33.155Z,11.37
2023-04-04T20:39:01.661Z,11.29
2023-04-04T20:41:29.900Z,11.27
2023-04-04T20:43:59.902Z,11.23
2023-04-04T20:46:32.934Z,11.25
2023-04-04T20:49:01.307Z,11.24
2023-04-04T20:51:31.077Z,11.27
2023-04-04T20:54:01.065Z,11.28
2023-04-04T20:56:55.388Z,11.26
2023-04-04T20:59:38.435Z,11.29
2023-04-04T21:02:13.645Z,11.30
2023-04-04T21:04:44.011Z,11.30
2023-04-04T21:07:36.176Z,11.27
2023-04-04T21:10:21.620Z,11.27
2023-04-04T21:12:49.816Z,11.23
2023-04-04T21:15:28.737Z,11.18
2023-04-04T21:18:00.260Z,11.14
2023-04-04T21:21:01.612Z,11.15
2023-04-04T21:23:34.395Z,11.15
2023-04-04T21:26:04.221Z,11.16
2023-04-04T21:28:36.270Z,11.18
2023-04-04T21:31:14.309Z,11.18
2023-04-04T21:33:44.976Z,11.23
2023-04-04T21:36:26.399Z,11.21
2023-04-04T21:38:55.693Z,11.20
2023-04-04T21:41:26.339Z,11.24
2023-04-04T21:43:55.704Z,11.21
2023-04-04T21:46:25.723Z,11.20
2023-04-04T21:48:56.078Z,11.22
2023-04-04T21:51:24.176Z,11.16
2023-04-04T21:53:52.527Z,11.10
2023-04-04T21:56:21.300Z,11.10
2023-04-04T21:58:49.851Z,11.15
2023-04-04T22:01:18.034Z,11.16
2023-04-04T22:03:46.261Z,11.17
2023-04-04T22:06:15.844Z,11.17
2023-04-04T22:08:44.342Z,11.21
2023-04-04T22:11:14.457Z,11.20
2023-04-04T22:13:47.169Z,11.20
2023-04-04T22:16:17.133Z,11.21
2023-04-04T22:18:47.975Z,11.20
2023-04-04T22:21:17.712Z,11.23
2023-04-04T22:23:45.988Z,11.16
2023-04-04T22:26:20.428Z,11.14
2023-04-04T22:28:50.275Z,11.09
2023-04-04T22:31:18.354Z,11.06
2023-04-04T22:33:46.811Z,11.02
2023-04-04T22:36:16.206Z,11.02
2023-04-04T22:38:45.734Z,11.03
2023-04-04T22:41:13.831Z,11.03
2023-04-04T22:43:41.932Z,11.07
2023-04-04T22:46:10.062Z,11.05
2023-04-04T22:48:41.505Z,11.03
2023-04-04T22:51:10.052Z,11.05
2023-04-04T22:53:38.246Z,11.05
2023-04-04T22:56:08.553Z,11.06
2023-04-04T22:58:36.676Z,11.09
2023-04-04T23:01:04.972Z,11.11
2023-04-04T23:03:33.403Z,11.13
2023-04-04T23:06:01.617Z,11.16
2023-04-04T23:08:29.788Z,11.14
2023-04-04T23:10:57.885Z,11.17
2023-04-04T23:13:27.445Z,11.15
2023-04-04T23:15:55.807Z,11.17
2023-04-04T23:18:24.409Z,11.16
2023-04-04T23:20:53.170Z,11.18
2023-04-04T23:23:21.595Z,11.19
2023-04-04T23:25:49.788Z,11.22
2023-04-04T23:28:18.521Z,11.20
2023-04-04T23:30:48.146Z,11.25
2023-04-04T23:33:16.690Z,11.27
2023-04-04T23:35:44.952Z,11.30
2023-04-04T23:38:13.600Z,11.29
2023-04-04T23:40:42.020Z,11.30
2023-04-04T23:43:10.353Z,11.35
2023-04-04T23:45:41.361Z,11.35
2023-04-04T23:48:11.308Z,11.39
2023-04-04T23:50:41.589Z,11.40
2023-04-04T23:53:09.884Z,11.41
2023-04-04T23:55:38.038Z,11.42
2023-04-04T23:58:06.507Z,11.42
